Time;durP1;ratioP1;P1;durP2;ratioP2;P2;SDS_P1;SDS_P2;PMS_P1;PMS_P2;Temp;Humidity;BMP_temperature;BMP_pressure;BME280_temperature;BME280_humidity;BME280_pressure;Samples;Min_cycle;Max_cycle;Signal;HPM_P1;HPM_P2
2023/01/30 00:00:24;;;;;;;45.08;18.63;;;;;;;;;;5047104;28;20452;-42
2023/01/30 00:02:50;;;;;;;48.20;19.27;;;;;;;;;;5044245;28;20621;-42
2023/01/30 00:05:16;;;;;;;41.00;18.00;;;;;;;;;;5044060;28;20471;-42
2023/01/30 00:07:42;;;;;;;39.08;20.48;;;;;;;;;;5043964;28;20488;-42
2023/01/30 00:10:08;;;;;;;39.00;18.45;;;;;;;;;;5044129;28;20175;-43
2023/01/30 00:12:34;;;;;;;38.25;16.70;;;;;;;;;;5044444;28;20180;-42
2023/01/30 00:15:00;;;;;;;32.07;15.70;;;;;;;;;;5048489;28;20273;-43
2023/01/30 00:17:26;;;;;;;41.30;22.80;;;;;;;;;;5047057;28;20414;-42
2023/01/30 00:19:52;;;;;;;38.57;18.17;;;;;;;;;;5042434;28;20405;-42
2023/01/30 00:22:18;;;;;;;40.50;19.03;;;;;;;;;;5045915;28;20935;-43
2023/01/30 00:24:44;;;;;;;47.77;19.37;;;;;;;;;;5051808;28;20900;-45
2023/01/30 00:27:10;;;;;;;48.67;22.50;;;;;;;;;;5043599;28;20492;-46
2023/01/30 00:29:36;;;;;;;39.13;17.93;;;;;;;;;;5043916;28;20539;-42
2023/01/30 00:32:02;;;;;;;42.07;19.00;;;;;;;;;;5048406;28;20414;-42
2023/01/30 00:34:28;;;;;;;39.63;18.43;;;;;;;;;;5040046;28;20411;-42
2023/01/30 00:36:54;;;;;;;39.57;17.90;;;;;;;;;;5048397;28;20519;-43
2023/01/30 00:39:20;;;;;;;43.17;20.03;;;;;;;;;;5045773;28;20405;-42
2023/01/30 00:47:15;;;;;;;38.92;17.80;;;;;;;;;;5043093;28;20194;-42
2023/01/30 00:49:41;;;;;;;42.15;19.60;;;;;;;;;;5051124;28;20569;-42
2023/01/30 00:52:07;;;;;;;41.57;18.20;;;;;;;;;;5043722;28;20162;-43
2023/01/30 00:54:34;;;;;;;42.72;19.20;;;;;;;;;;5043358;28;20481;-42
2023/01/30 00:57:00;;;;;;;46.17;20.23;;;;;;;;;;5051295;28;20724;-42
2023/01/30 00:59:26;;;;;;;48.30;20.40;;;;;;;;;;5051721;28;20175;-42
2023/01/30 01:01:52;;;;;;;38.97;18.70;;;;;;;;;;5051772;28;20179;-42
2023/01/30 01:04:18;;;;;;;38.00;19.20;;;;;;;;;;5051509;28;20171;-43
2023/01/30 01:06:44;;;;;;;34.60;17.30;;;;;;;;;;5051460;28;20438;-42
2023/01/30 01:09:11;;;;;;;36.77;18.10;;;;;;;;;;5051493;28;20702;-42
2023/01/30 01:11:37;;;;;;;44.30;20.70;;;;;;;;;;5051684;28;20452;-42
2023/01/30 01:14:03;;;;;;;46.17;21.00;;;;;;;;;;5051520;28;20658;-45
2023/01/30 01:16:30;;;;;;;46.15;18.75;;;;;;;;;;5051462;28;20425;-42
2023/01/30 01:18:57;;;;;;;40.80;20.60;;;;;;;;;;5051543;28;20170;-43
2023/01/30 01:21:23;;;;;;;43.13;20.00;;;;;;;;;;5051646;28;20213;-43
2023/01/30 01:23:50;;;;;;;59.95;21.35;;;;;;;;;;5051613;28;20225;-42
2023/01/30 01:26:16;;;;;;;39.63;18.85;;;;;;;;;;5051205;28;20191;-42
2023/01/30 01:28:42;;;;;;;56.97;21.90;;;;;;;;;;5051521;28;20617;-42
2023/01/30 01:31:09;;;;;;;37.33;18.40;;;;;;;;;;5051316;28;20496;-42
2023/01/30 01:33:35;;;;;;;39.20;19.80;;;;;;;;;;5051418;28;20398;-45
2023/01/30 01:36:01;;;;;;;43.83;20.20;;;;;;;;;;5051046;28;20187;-46
2023/01/30 01:38:27;;;;;;;39.58;19.75;;;;;;;;;;5051432;28;20178;-42
2023/01/30 01:41:03;;;;;;;43.40;19.90;;;;;;;;;;5051253;28;20170;-42
2023/01/30 01:43:31;;;;;;;41.25;19.38;;;;;;;;;;5051379;28;20892;-42
2023/01/30 01:46:03;;;;;;;38.83;19.08;;;;;;;;;;5051007;28;20187;-43
2023/01/30 01:48:35;;;;;;;44.38;19.67;;;;;;;;;;5051191;28;20202;-43
2023/01/30 01:51:01;;;;;;;38.00;19.77;;;;;;;;;;5051113;28;20163;-43
2023/01/30 01:53:29;;;;;;;54.63;21.00;;;;;;;;;;5051391;28;20660;-43
2023/01/30 01:55:58;;;;;;;39.10;18.92;;;;;;;;;;5050683;28;20506;-42
2023/01/30 01:58:26;;;;;;;38.63;20.50;;;;;;;;;;5050854;28;20557;-42
2023/01/30 02:00:53;;;;;;;40.60;20.48;;;;;;;;;;5046845;28;20179;-42
2023/01/30 02:03:22;;;;;;;45.38;20.10;;;;;;;;;;5050444;28;20207;-45
2023/01/30 02:05:50;;;;;;;37.85;20.40;;;;;;;;;;5050169;28;20202;-42
2023/01/30 02:08:19;;;;;;;45.88;21.30;;;;;;;;;;5047364;28;20237;-42
2023/01/30 02:10:54;;;;;;;34.90;18.80;;;;;;;;;;5048710;28;20179;-42
2023/01/30 02:13:20;;;;;;;44.50;20.23;;;;;;;;;;5046075;28;20175;-42
2023/01/30 02:15:46;;;;;;;44.33;20.58;;;;;;;;;;5046036;28;20218;-42
2023/01/30 02:18:12;;;;;;;31.40;13.98;;;;;;;;;;5050120;28;20249;-42
2023/01/30 02:20:50;;;;;;;43.08;19.15;;;;;;;;;;5053290;28;20183;-49
2023/01/30 02:23:29;;;;;;;43.22;20.05;;;;;;;;;;5047994;28;20270;-42
2023/01/30 02:26:05;;;;;;;44.13;17.88;;;;;;;;;;5043359;28;20206;-42
2023/01/30 02:28:46;;;;;;;39.58;19.73;;;;;;;;;;5049790;28;20202;-43
2023/01/30 02:31:24;;;;;;;42.33;18.65;;;;;;;;;;5047025;28;20251;-43
2023/01/30 02:33:50;;;;;;;37.90;19.67;;;;;;;;;;5045953;28;20268;-42
2023/01/30 02:36:25;;;;;;;47.40;18.47;;;;;;;;;;5045511;28;20241;-42
2023/01/30 02:39:03;;;;;;;38.15;17.17;;;;;;;;;;5045817;28;20523;-42
2023/01/30 02:41:29;;;;;;;46.17;21.00;;;;;;;;;;5045741;28;20178;-42
2023/01/30 02:44:02;;;;;;;51.33;22.70;;;;;;;;;;5045919;28;20249;-44
2023/01/30 02:46:31;;;;;;;46.38;22.95;;;;;;;;;;5047450;28;20437;-42
2023/01/30 02:49:00;;;;;;;45.08;21.70;;;;;;;;;;5050509;28;20221;-43
2023/01/30 02:51:29;;;;;;;46.75;23.85;;;;;;;;;;5048635;28;20182;-43
2023/01/30 02:53:55;;;;;;;45.15;20.33;;;;;;;;;;5043502;28;20187;-42
2023/01/30 02:56:21;;;;;;;50.05;24.40;;;;;;;;;;5048828;28;20197;-42
2023/01/30 02:58:54;;;;;;;53.70;23.20;;;;;;;;;;5045519;28;20276;-43
2023/01/30 03:01:26;;;;;;;49.10;22.08;;;;;;;;;;5045077;28;20210;-46
2023/01/30 03:03:58;;;;;;;35.42;18.20;;;;;;;;;;5045617;28;20190;-43
2023/01/30 03:06:43;;;;;;;42.05;20.10;;;;;;;;;;5047042;28;20207;-45
2023/01/30 03:09:15;;;;;;;40.17;23.35;;;;;;;;;;5045277;28;20210;-44
2023/01/30 03:11:57;;;;;;;42.20;19.77;;;;;;;;;;5044878;28;20647;-42
2023/01/30 03:14:28;;;;;;;44.55;22.10;;;;;;;;;;5053388;28;20230;-42
2023/01/30 03:16:56;;;;;;;42.53;22.27;;;;;;;;;;5051493;28;20199;-43
2023/01/30 03:19:22;;;;;;;44.67;21.52;;;;;;;;;;5047725;28;20278;-43
2023/01/30 03:21:48;;;;;;;54.47;23.85;;;;;;;;;;5043281;28;20244;-43
2023/01/30 03:24:14;;;;;;;40.40;20.20;;;;;;;;;;5046166;28;20659;-45
2023/01/30 03:26:42;;;;;;;46.20;21.38;;;;;;;;;;5044705;28;20444;-47
2023/01/30 03:29:08;;;;;;;39.92;18.48;;;;;;;;;;5044918;28;20218;-43
2023/01/30 03:31:34;;;;;;;46.70;21.57;;;;;;;;;;5045287;28;20176;-44
2023/01/30 03:34:00;;;;;;;37.13;20.87;;;;;;;;;;5049551;28;20410;-46
2023/01/30 03:36:26;;;;;;;45.60;22.57;;;;;;;;;;5041205;28;20462;-45
2023/01/30 03:38:52;;;;;;;42.70;21.52;;;;;;;;;;5049400;28;20637;-43
2023/01/30 03:41:18;;;;;;;39.92;19.88;;;;;;;;;;5046638;28;20182;-44
2023/01/30 03:43:44;;;;;;;45.37;21.73;;;;;;;;;;5044665;28;20171;-42
2023/01/30 03:46:10;;;;;;;37.90;20.07;;;;;;;;;;5044408;28;20452;-43
2023/01/30 03:48:37;;;;;;;41.27;20.77;;;;;;;;;;5044913;28;20560;-43
2023/01/30 03:51:03;;;;;;;39.10;19.95;;;;;;;;;;5044225;28;20410;-45
2023/01/30 03:53:29;;;;;;;36.38;19.58;;;;;;;;;;5045644;28;20271;-42
2023/01/30 03:55:55;;;;;;;40.50;18.07;;;;;;;;;;5049051;28;20238;-42
2023/01/30 03:58:21;;;;;;;45.07;20.30;;;;;;;;;;5028929;28;20449;-43
2023/01/30 04:00:47;;;;;;;43.50;19.77;;;;;;;;;;5044323;28;20496;-42
2023/01/30 04:03:14;;;;;;;43.97;19.40;;;;;;;;;;5052492;28;20881;-44
2023/01/30 04:05:41;;;;;;;41.22;21.33;;;;;;;;;;5052094;28;20432;-42
2023/01/30 04:08:07;;;;;;;40.03;20.73;;;;;;;;;;5052574;28;20203;-43
2023/01/30 04:10:34;;;;;;;33.72;18.63;;;;;;;;;;5052554;28;20198;-42
2023/01/30 04:13:00;;;;;;;44.77;21.93;;;;;;;;;;5052892;28;20626;-42
2023/01/30 04:15:27;;;;;;;44.80;21.10;;;;;;;;;;5052281;28;20448;-43
2023/01/30 04:17:53;;;;;;;40.38;18.50;;;;;;;;;;5052511;28;20401;-43
2023/01/30 04:20:19;;;;;;;37.47;18.10;;;;;;;;;;5052293;28;20280;-42
2023/01/30 04:22:45;;;;;;;44.92;20.83;;;;;;;;;;5052462;28;20410;-43
2023/01/30 04:25:11;;;;;;;41.10;20.17;;;;;;;;;;5051952;28;20207;-43
2023/01/30 04:27:37;;;;;;;42.83;19.60;;;;;;;;;;5052281;28;20402;-43
2023/01/30 04:30:03;;;;;;;43.00;21.10;;;;;;;;;;5052135;28;20437;-46
2023/01/30 04:32:30;;;;;;;41.65;20.40;;;;;;;;;;5051520;28;20961;-43
2023/01/30 04:34:56;;;;;;;41.80;21.70;;;;;;;;;;5051789;28;20159;-42
2023/01/30 04:37:22;;;;;;;38.60;18.00;;;;;;;;;;5052340;28;20538;-42
2023/01/30 04:39:48;;;;;;;39.57;20.00;;;;;;;;;;5052210;28;20406;-43
2023/01/30 04:42:14;;;;;;;32.90;15.53;;;;;;;;;;5052011;28;20405;-42
2023/01/30 04:44:41;;;;;;;35.80;18.90;;;;;;;;;;5051850;28;20402;-43
2023/01/30 04:47:07;;;;;;;41.75;17.50;;;;;;;;;;5051929;28;20463;-42
2023/01/30 04:49:33;;;;;;;40.70;18.60;;;;;;;;;;5051795;28;20226;-42
2023/01/30 04:51:59;;;;;;;32.73;15.73;;;;;;;;;;5051746;28;20543;-42
2023/01/30 04:54:25;;;;;;;39.92;17.27;;;;;;;;;;5051639;28;21038;-44
2023/01/30 04:56:53;;;;;;;32.83;14.73;;;;;;;;;;5051798;28;20274;-43
2023/01/30 04:59:19;;;;;;;37.13;18.88;;;;;;;;;;5052349;28;20207;-47
2023/01/30 05:01:45;;;;;;;33.97;17.83;;;;;;;;;;5051663;28;20202;-42
2023/01/30 05:04:11;;;;;;;41.03;19.87;;;;;;;;;;5051343;28;20428;-43
2023/01/30 05:06:37;;;;;;;28.00;16.25;;;;;;;;;;5051682;28;20761;-42
2023/01/30 05:09:03;;;;;;;33.77;18.10;;;;;;;;;;5051533;28;20230;-42
2023/01/30 05:11:31;;;;;;;39.08;17.30;;;;;;;;;;5046910;28;20988;-43
2023/01/30 05:13:58;;;;;;;31.27;15.07;;;;;;;;;;5048734;28;20643;-47
2023/01/30 05:16:25;;;;;;;29.90;13.35;;;;;;;;;;5045858;28;20182;-47
2023/01/30 05:18:51;;;;;;;33.58;16.20;;;;;;;;;;5050402;28;20210;-44
2023/01/30 05:21:19;;;;;;;33.20;14.73;;;;;;;;;;5043064;28;20174;-44
2023/01/30 05:23:45;;;;;;;32.85;15.38;;;;;;;;;;5042811;28;20414;-44
2023/01/30 05:26:12;;;;;;;44.15;17.73;;;;;;;;;;5046421;28;20249;-43
2023/01/30 05:28:38;;;;;;;29.63;15.63;;;;;;;;;;5039447;28;20282;-42
2023/01/30 05:31:11;;;;;;;36.17;17.38;;;;;;;;;;5047402;28;20221;-43
2023/01/30 05:33:38;;;;;;;33.53;16.15;;;;;;;;;;5047766;28;20174;-48
2023/01/30 05:36:05;;;;;;;38.40;16.15;;;;;;;;;;5043022;28;20194;-44
2023/01/30 05:38:31;;;;;;;32.13;16.20;;;;;;;;;;5043490;28;20231;-45
2023/01/30 05:40:58;;;;;;;30.17;14.83;;;;;;;;;;5042776;28;20273;-45
2023/01/30 05:43:24;;;;;;;28.45;15.45;;;;;;;;;;5043930;28;20416;-45
2023/01/30 05:45:54;;;;;;;35.10;16.43;;;;;;;;;;5046340;28;20381;-45
2023/01/30 05:48:20;;;;;;;23.83;13.48;;;;;;;;;;5048904;28;20465;-45
2023/01/30 05:50:46;;;;;;;35.42;16.00;;;;;;;;;;5050739;28;20685;-45
2023/01/30 05:53:12;;;;;;;28.38;16.42;;;;;;;;;;5047491;28;20209;-45
2023/01/30 05:55:38;;;;;;;28.40;15.15;;;;;;;;;;5051625;28;20205;-45
2023/01/30 05:58:04;;;;;;;31.42;17.58;;;;;;;;;;5051803;28;20190;-46
2023/01/30 06:00:30;;;;;;;30.37;17.07;;;;;;;;;;5045799;28;20190;-45
2023/01/30 06:02:56;;;;;;;29.10;16.80;;;;;;;;;;5045872;28;20436;-45
2023/01/30 06:05:22;;;;;;;26.53;14.70;;;;;;;;;;5048724;28;20448;-45
2023/01/30 06:07:48;;;;;;;29.33;17.40;;;;;;;;;;5052290;28;20513;-45
2023/01/30 06:10:14;;;;;;;31.50;17.60;;;;;;;;;;5042362;28;20705;-45
2023/01/30 06:12:40;;;;;;;36.20;18.67;;;;;;;;;;5050464;28;21073;-46
2023/01/30 06:15:06;;;;;;;37.97;18.90;;;;;;;;;;5045648;28;20429;-45
2023/01/30 06:17:32;;;;;;;37.30;19.00;;;;;;;;;;5046054;28;20758;-45
2023/01/30 06:19:58;;;;;;;29.97;16.87;;;;;;;;;;5046127;28;20182;-46
2023/01/30 06:22:24;;;;;;;38.47;19.47;;;;;;;;;;5048141;28;20411;-46
2023/01/30 06:24:50;;;;;;;33.23;16.43;;;;;;;;;;5052083;28;20413;-45
2023/01/30 06:27:16;;;;;;;37.23;21.63;;;;;;;;;;5049102;28;20465;-45
2023/01/30 06:29:43;;;;;;;31.93;18.40;;;;;;;;;;5050429;28;20464;-45
2023/01/30 06:32:09;;;;;;;39.13;19.25;;;;;;;;;;5046727;28;20440;-45
2023/01/30 06:34:35;;;;;;;39.47;20.13;;;;;;;;;;5045652;28;20651;-45
2023/01/30 06:37:01;;;;;;;42.33;20.57;;;;;;;;;;5045742;28;20251;-46
2023/01/30 06:39:29;;;;;;;36.43;20.13;;;;;;;;;;5045868;28;20463;-46
2023/01/30 06:41:55;;;;;;;44.20;22.75;;;;;;;;;;5045515;28;20414;-46
2023/01/30 06:44:21;;;;;;;36.97;20.57;;;;;;;;;;5047700;28;20191;-46
2023/01/30 06:46:47;;;;;;;42.90;23.20;;;;;;;;;;5050305;28;20440;-46
2023/01/30 06:49:13;;;;;;;35.57;20.63;;;;;;;;;;5046860;28;20461;-46
2023/01/30 06:51:38;;;;;;;35.87;20.27;;;;;;;;;;5045299;28;20404;-46
2023/01/30 06:54:04;;;;;;;32.77;16.83;;;;;;;;;;5045646;28;20452;-46
2023/01/30 06:56:30;;;;;;;40.45;21.35;;;;;;;;;;5051601;28;20430;-45
2023/01/30 06:58:56;;;;;;;37.13;20.47;;;;;;;;;;5045423;28;20647;-46
2023/01/30 07:01:22;;;;;;;48.47;21.43;;;;;;;;;;5047313;28;20450;-45
2023/01/30 07:03:48;;;;;;;37.03;20.97;;;;;;;;;;5050036;28;20414;-46
2023/01/30 07:06:14;;;;;;;40.60;21.40;;;;;;;;;;5023641;28;20722;-46
2023/01/30 07:08:40;;;;;;;43.90;21.70;;;;;;;;;;5049938;28;20206;-46
2023/01/30 07:11:06;;;;;;;45.80;18.23;;;;;;;;;;5045957;28;20394;-46
2023/01/30 07:13:32;;;;;;;43.47;21.07;;;;;;;;;;5053553;28;20476;-46
2023/01/30 07:15:58;;;;;;;38.23;19.67;;;;;;;;;;5051987;28;20995;-46
2023/01/30 07:18:24;;;;;;;38.23;20.40;;;;;;;;;;5053459;28;20978;-46
2023/01/30 07:20:50;;;;;;;38.30;20.23;;;;;;;;;;5053424;28;20923;-46
2023/01/30 07:23:16;;;;;;;56.27;21.43;;;;;;;;;;5051480;28;20953;-46
2023/01/30 07:25:42;;;;;;;38.45;20.40;;;;;;;;;;5051955;28;20421;-46
2023/01/30 07:28:09;;;;;;;29.07;15.00;;;;;;;;;;5044960;28;20731;-46
2023/01/30 07:30:35;;;;;;;45.50;20.30;;;;;;;;;;5052364;28;20544;-46
2023/01/30 07:33:02;;;;;;;34.53;18.83;;;;;;;;;;5043901;28;20232;-46
2023/01/30 07:35:29;;;;;;;34.35;17.90;;;;;;;;;;5045277;28;20210;-46
2023/01/30 07:37:55;;;;;;;38.10;17.85;;;;;;;;;;5049042;28;20542;-46
2023/01/30 07:40:22;;;;;;;29.53;14.80;;;;;;;;;;5042215;28;20184;-46
2023/01/30 07:43:07;;;;;;;31.65;17.55;;;;;;;;;;5051257;28;20406;-46
2023/01/30 07:45:43;;;;;;;31.50;16.08;;;;;;;;;;5048180;28;20201;-46
2023/01/30 07:48:11;;;;;;;26.00;15.65;;;;;;;;;;5045434;28;20194;-46
2023/01/30 07:50:37;;;;;;;31.88;16.73;;;;;;;;;;5044524;28;20167;-46
2023/01/30 07:53:04;;;;;;;25.30;13.37;;;;;;;;;;5049677;28;20172;-46
2023/01/30 07:55:30;;;;;;;29.70;15.50;;;;;;;;;;5047448;28;20800;-46
2023/01/30 07:57:56;;;;;;;16.17;10.03;;;;;;;;;;5044243;28;20196;-46
2023/01/30 08:00:22;;;;;;;18.13;9.75;;;;;;;;;;5046059;28;20434;-46
2023/01/30 08:02:48;;;;;;;20.23;12.80;;;;;;;;;;5049035;28;20584;-46
2023/01/30 08:05:14;;;;;;;21.47;11.57;;;;;;;;;;5045102;28;20441;-46
2023/01/30 08:07:40;;;;;;;26.20;13.97;;;;;;;;;;5042524;28;20412;-46
2023/01/30 08:10:06;;;;;;;15.25;9.13;;;;;;;;;;5044338;28;20950;-46
2023/01/30 08:12:32;;;;;;;24.33;10.57;;;;;;;;;;5043824;28;20187;-46
2023/01/30 08:14:58;;;;;;;22.23;11.95;;;;;;;;;;5043697;28;20267;-46
2023/01/30 08:17:24;;;;;;;7.68;5.32;;;;;;;;;;5046142;28;20180;-46
2023/01/30 08:19:51;;;;;;;13.20;7.10;;;;;;;;;;5050293;28;20187;-46
2023/01/30 08:22:17;;;;;;;12.52;7.10;;;;;;;;;;5040140;28;20418;-46
2023/01/30 08:24:43;;;;;;;13.93;7.60;;;;;;;;;;5048188;28;20202;-46
2023/01/30 08:27:09;;;;;;;12.50;5.80;;;;;;;;;;5044633;28;20499;-46
2023/01/30 08:29:35;;;;;;;16.80;7.83;;;;;;;;;;5048148;28;20468;-46
2023/01/30 08:32:01;;;;;;;7.17;3.90;;;;;;;;;;5043520;28;20420;-46
2023/01/30 08:34:27;;;;;;;9.33;4.60;;;;;;;;;;5044609;28;20485;-46
2023/01/30 08:36:53;;;;;;;9.03;5.73;;;;;;;;;;5050196;28;20434;-46
2023/01/30 08:39:19;;;;;;;24.43;6.47;;;;;;;;;;5046077;28;20927;-46
2023/01/30 08:41:45;;;;;;;15.27;6.30;;;;;;;;;;5048239;28;20416;-46
2023/01/30 08:44:11;;;;;;;13.77;4.77;;;;;;;;;;5043992;28;20406;-46
2023/01/30 08:46:38;;;;;;;10.93;5.28;;;;;;;;;;5043169;28;20975;-45
2023/01/30 08:49:04;;;;;;;10.93;4.45;;;;;;;;;;5042641;28;20695;-46
2023/01/30 08:51:30;;;;;;;9.90;5.47;;;;;;;;;;5043251;28;20206;-45
2023/01/30 08:53:56;;;;;;;10.55;4.82;;;;;;;;;;5051544;28;20179;-45
2023/01/30 08:56:22;;;;;;;12.80;5.25;;;;;;;;;;5051033;28;20202;-45
2023/01/30 08:58:48;;;;;;;10.93;4.67;;;;;;;;;;5050322;28;20379;-45
2023/01/30 09:01:15;;;;;;;11.20;5.20;;;;;;;;;;5051390;28;20492;-46
2023/01/30 09:03:41;;;;;;;9.40;4.72;;;;;;;;;;5051477;28;20418;-46
2023/01/30 09:06:07;;;;;;;8.15;3.60;;;;;;;;;;5051016;28;20281;-46
2023/01/30 09:08:33;;;;;;;3.63;3.30;;;;;;;;;;5051396;28;20234;-46
2023/01/30 09:10:59;;;;;;;10.77;2.90;;;;;;;;;;5051459;28;20206;-45
2023/01/30 09:13:26;;;;;;;16.20;5.80;;;;;;;;;;5051502;28;20401;-45
2023/01/30 09:15:52;;;;;;;10.68;4.13;;;;;;;;;;5051160;28;20236;-46
2023/01/30 09:18:18;;;;;;;10.10;3.70;;;;;;;;;;5050914;28;20487;-46
2023/01/30 09:20:44;;;;;;;13.13;3.70;;;;;;;;;;5051448;28;20166;-46
2023/01/30 09:23:10;;;;;;;7.88;3.05;;;;;;;;;;5051293;28;20400;-46
2023/01/30 09:25:36;;;;;;;13.23;4.70;;;;;;;;;;5051158;28;20198;-45
2023/01/30 09:28:02;;;;;;;14.88;3.05;;;;;;;;;;5051046;28;20450;-45
2023/01/30 09:30:28;;;;;;;8.77;2.57;;;;;;;;;;5051228;28;20162;-46
2023/01/30 09:32:54;;;;;;;6.20;2.93;;;;;;;;;;5051082;28;20402;-45
2023/01/30 09:35:20;;;;;;;4.83;2.80;;;;;;;;;;5051156;28;20449;-46
2023/01/30 09:37:47;;;;;;;8.10;2.80;;;;;;;;;;5051398;28;20398;-45
2023/01/30 09:40:15;;;;;;;6.57;3.03;;;;;;;;;;5050971;28;20402;-45
2023/01/30 09:42:53;;;;;;;8.70;2.83;;;;;;;;;;5051345;28;20398;-46
2023/01/30 09:45:31;;;;;;;8.77;2.83;;;;;;;;;;5050594;28;20193;-45
2023/01/30 09:48:16;;;;;;;9.43;3.23;;;;;;;;;;5051067;28;20197;-45
2023/01/30 09:51:00;;;;;;;7.73;3.80;;;;;;;;;;5051143;28;20913;-45
2023/01/30 09:53:26;;;;;;;9.00;3.73;;;;;;;;;;5051096;28;20444;-46
2023/01/30 09:55:52;;;;;;;6.60;2.57;;;;;;;;;;5050588;28;20422;-45
2023/01/30 09:58:20;;;;;;;10.67;3.53;;;;;;;;;;5050760;28;20461;-45
2023/01/30 10:00:47;;;;;;;23.63;3.57;;;;;;;;;;5051118;28;20398;-45
2023/01/30 10:03:13;;;;;;;12.10;5.00;;;;;;;;;;5050882;28;20425;-45
2023/01/30 10:05:49;;;;;;;4.70;2.13;;;;;;;;;;5050647;28;20922;-45
2023/01/30 10:08:18;;;;;;;14.53;3.40;;;;;;;;;;5050616;28;20449;-45
2023/01/30 10:10:44;;;;;;;15.17;3.47;;;;;;;;;;5050984;28;20944;-45
2023/01/30 10:13:25;;;;;;;14.03;3.63;;;;;;;;;;5051156;28;20405;-45
2023/01/30 10:15:53;;;;;;;18.13;3.63;;;;;;;;;;5050546;28;20421;-45
2023/01/30 10:18:34;;;;;;;18.73;3.10;;;;;;;;;;5050760;28;20694;-45
2023/01/30 10:21:12;;;;;;;20.95;3.50;;;;;;;;;;5050594;28;20497;-45
2023/01/30 10:23:55;;;;;;;10.20;3.53;;;;;;;;;;5050799;28;20176;-45
2023/01/30 10:26:25;;;;;;;16.75;2.83;;;;;;;;;;5049422;28;20470;-45
2023/01/30 10:28:57;;;;;;;8.80;3.60;;;;;;;;;;5050582;28;20203;-45
2023/01/30 10:31:25;;;;;;;13.75;2.83;;;;;;;;;;5052921;28;20733;-45
2023/01/30 10:34:10;;;;;;;12.07;2.90;;;;;;;;;;5054288;28;20171;-45
2023/01/30 10:36:39;;;;;;;10.27;2.90;;;;;;;;;;5054063;28;20827;-45
2023/01/30 10:39:09;;;;;;;9.20;3.37;;;;;;;;;;5054169;28;20407;-45
2023/01/30 10:41:49;;;;;;;11.33;3.90;;;;;;;;;;5053804;28;20403;-45
2023/01/30 10:44:17;;;;;;;5.80;2.50;;;;;;;;;;5053906;28;20797;-45
2023/01/30 10:46:55;;;;;;;5.67;2.57;;;;;;;;;;5053815;28;20849;-45
2023/01/30 10:49:21;;;;;;;18.83;3.43;;;;;;;;;;5053912;28;20454;-45
2023/01/30 10:51:59;;;;;;;12.13;3.60;;;;;;;;;;5053863;28;20406;-45
2023/01/30 10:54:25;;;;;;;9.33;2.80;;;;;;;;;;5053877;28;20418;-45
2023/01/30 10:56:57;;;;;;;11.63;3.37;;;;;;;;;;5053720;28;20419;-45
2023/01/30 10:59:23;;;;;;;11.23;3.00;;;;;;;;;;5053832;28;20412;-45
2023/01/30 11:01:58;;;;;;;15.17;2.73;;;;;;;;;;5053830;28;20397;-45
2023/01/30 11:04:39;;;;;;;12.13;2.93;;;;;;;;;;5053624;28;20761;-44
2023/01/30 11:07:05;;;;;;;7.40;2.30;;;;;;;;;;5053416;28;20514;-45
2023/01/30 11:09:58;;;;;;;11.70;2.70;;;;;;;;;;5053694;28;20453;-45
2023/01/30 11:12:24;;;;;;;9.75;3.75;;;;;;;;;;5048993;28;20419;-45
2023/01/30 11:14:55;;;;;;;8.73;2.60;;;;;;;;;;5053244;28;20183;-45
2023/01/30 11:17:27;;;;;;;7.10;3.37;;;;;;;;;;5053530;28;20591;-45
2023/01/30 11:19:57;;;;;;;7.80;2.33;;;;;;;;;;5053544;28;20399;-44
2023/01/30 11:22:27;;;;;;;4.83;2.23;;;;;;;;;;5053320;28;20180;-45
2023/01/30 11:25:01;;;;;;;12.40;2.90;;;;;;;;;;5053123;28;20440;-45
2023/01/30 11:27:28;;;;;;;8.90;3.50;;;;;;;;;;5053159;28;20402;-44
2023/01/30 11:30:06;;;;;;;15.73;4.43;;;;;;;;;;5053003;28;20230;-45
2023/01/30 11:32:32;;;;;;;14.07;3.20;;;;;;;;;;5053366;28;20433;-45
2023/01/30 11:35:07;;;;;;;8.60;3.30;;;;;;;;;;5052792;28;20918;-44
2023/01/30 11:37:34;;;;;;;3.13;2.03;;;;;;;;;;5053159;28;20899;-45
2023/01/30 11:40:06;;;;;;;9.57;2.90;;;;;;;;;;5052712;28;20756;-45
2023/01/30 11:42:32;;;;;;;9.03;2.43;;;;;;;;;;5052783;28;20396;-45
2023/01/30 11:44:59;;;;;;;26.43;3.70;;;;;;;;;;5052538;28;20412;-45
2023/01/30 11:47:26;;;;;;;12.87;4.40;;;;;;;;;;5049133;28;20427;-45
2023/01/30 11:49:55;;;;;;;6.87;3.03;;;;;;;;;;5052144;28;20468;-45
2023/01/30 11:52:36;;;;;;;11.20;2.47;;;;;;;;;;5052696;28;20513;-43
2023/01/30 11:55:07;;;;;;;9.03;2.47;;;;;;;;;;5050784;28;20421;-45
2023/01/30 11:57:53;;;;;;;21.23;3.90;;;;;;;;;;5051369;28;20480;-44
2023/01/30 12:00:19;;;;;;;7.10;2.43;;;;;;;;;;5051491;28;20413;-43
2023/01/30 12:02:46;;;;;;;9.20;2.30;;;;;;;;;;5052251;28;20455;-44
2023/01/30 12:05:41;;;;;;;20.60;2.70;;;;;;;;;;5051800;28;20421;-45
2023/01/30 12:08:13;;;;;;;15.95;2.85;;;;;;;;;;5049434;28;20447;-44
2023/01/30 12:10:43;;;;;;;8.55;2.95;;;;;;;;;;5051807;28;20167;-44
2023/01/30 12:13:15;;;;;;;11.90;3.30;;;;;;;;;;5051438;28;20960;-44
2023/01/30 12:15:44;;;;;;;4.10;2.53;;;;;;;;;;5051411;28;20433;-44
2023/01/30 12:18:48;;;;;;;9.57;2.95;;;;;;;;;;5051771;28;20677;-44
2023/01/30 12:21:14;;;;;;;9.50;3.08;;;;;;;;;;4951012;29;20278;-45
2023/01/30 12:23:56;;;;;;;20.53;3.20;;;;;;;;;;4950682;29;20269;-44
2023/01/30 12:26:36;;;;;;;12.73;3.00;;;;;;;;;;5008615;28;20473;-45
2023/01/30 12:29:01;;;;;;;21.73;3.17;;;;;;;;;;5050250;28;20591;-45
2023/01/30 12:31:34;;;;;;;9.40;3.10;;;;;;;;;;5050960;28;20496;-45
2023/01/30 12:34:00;;;;;;;9.53;2.50;;;;;;;;;;5049178;28;20784;-44
2023/01/30 12:36:29;;;;;;;5.07;2.40;;;;;;;;;;5051368;28;20788;-44
2023/01/30 12:38:57;;;;;;;8.40;3.30;;;;;;;;;;5051746;28;20403;-44
2023/01/30 12:41:23;;;;;;;12.50;2.97;;;;;;;;;;5051865;28;21084;-44
2023/01/30 12:43:52;;;;;;;10.50;2.47;;;;;;;;;;5050065;28;20415;-45
2023/01/30 12:46:28;;;;;;;5.90;3.10;;;;;;;;;;5051212;28;20422;-44
2023/01/30 12:49:03;;;;;;;7.30;2.07;;;;;;;;;;5051545;28;21001;-44
2023/01/30 12:51:38;;;;;;;9.27;3.10;;;;;;;;;;5051954;28;20895;-44
2023/01/30 12:54:12;;;;;;;18.47;2.90;;;;;;;;;;5051072;28;20159;-44
2023/01/30 12:56:52;;;;;;;8.77;2.63;;;;;;;;;;5050135;28;20422;-44
2023/01/30 12:59:25;;;;;;;12.67;2.53;;;;;;;;;;5051413;28;20412;-44
2023/01/30 13:01:59;;;;;;;13.67;2.97;;;;;;;;;;5051279;28;20446;-45
2023/01/30 13:04:44;;;;;;;5.73;2.20;;;;;;;;;;5050727;28;20398;-45
2023/01/30 13:07:16;;;;;;;4.97;2.80;;;;;;;;;;5050946;28;20751;-45
2023/01/30 13:10:01;;;;;;;10.60;2.57;;;;;;;;;;5051480;28;20578;-45
2023/01/30 13:12:50;;;;;;;15.37;2.87;;;;;;;;;;5049834;28;20413;-45
2023/01/30 13:15:19;;;;;;;5.03;2.60;;;;;;;;;;5050418;28;20438;-45
2023/01/30 13:17:51;;;;;;;18.20;3.70;;;;;;;;;;5049438;28;20936;-44
2023/01/30 13:20:36;;;;;;;7.33;2.93;;;;;;;;;;5049297;28;20410;-45
2023/01/30 13:23:02;;;;;;;5.43;2.63;;;;;;;;;;5049526;28;20809;-45
2023/01/30 13:25:54;;;;;;;7.40;2.57;;;;;;;;;;5049090;28;20522;-44
2023/01/30 13:28:23;;;;;;;13.73;2.90;;;;;;;;;;5049676;28;20459;-44
2023/01/30 13:30:50;;;;;;;12.20;4.73;;;;;;;;;;5049972;28;20493;-44
2023/01/30 13:33:20;;;;;;;13.40;2.20;;;;;;;;;;5050273;28;20417;-44
2023/01/30 13:35:48;;;;;;;10.20;3.60;;;;;;;;;;5051074;28;20476;-45
2023/01/30 13:38:20;;;;;;;8.43;3.40;;;;;;;;;;5051052;28;20412;-44
2023/01/30 13:40:47;;;;;;;8.63;2.83;;;;;;;;;;5032882;28;20423;-44
2023/01/30 13:43:17;;;;;;;6.03;2.47;;;;;;;;;;5050716;28;20400;-44
2023/01/30 13:45:45;;;;;;;15.40;2.93;;;;;;;;;;5050537;28;20938;-45
2023/01/30 13:48:14;;;;;;;10.07;2.30;;;;;;;;;;5050932;28;20984;-44
2023/01/30 13:50:43;;;;;;;9.40;2.57;;;;;;;;;;5050763;28;20391;-44
2023/01/30 13:53:13;;;;;;;16.93;2.93;;;;;;;;;;5051110;28;20407;-44
2023/01/30 13:55:51;;;;;;;8.60;2.13;;;;;;;;;;5050241;28;20515;-45
2023/01/30 13:58:33;;;;;;;21.37;5.27;;;;;;;;;;5050549;28;20436;-44
2023/01/30 14:00:59;;;;;;;8.80;2.30;;;;;;;;;;5050522;28;20410;-44
2023/01/30 14:03:29;;;;;;;9.40;2.37;;;;;;;;;;5050598;28;20488;-44
2023/01/30 14:05:59;;;;;;;17.10;6.30;;;;;;;;;;5053435;28;20775;-42
2023/01/30 14:08:48;;;;;;;16.33;3.67;;;;;;;;;;5054499;28;20497;-46
2023/01/30 14:11:29;;;;;;;11.60;2.53;;;;;;;;;;5053274;28;20863;-47
2023/01/30 14:13:59;;;;;;;15.50;3.23;;;;;;;;;;5054344;28;20400;-46
2023/01/30 14:16:39;;;;;;;14.63;2.60;;;;;;;;;;5053895;28;20484;-48
2023/01/30 14:19:23;;;;;;;7.00;2.37;;;;;;;;;;5054403;28;20489;-46
2023/01/30 14:21:54;;;;;;;8.20;2.90;;;;;;;;;;5054184;28;20439;-46
2023/01/30 14:24:23;;;;;;;14.40;2.97;;;;;;;;;;5053992;28;20459;-44
2023/01/30 14:26:49;;;;;;;8.53;2.90;;;;;;;;;;5053882;28;20825;-47
2023/01/30 14:29:34;;;;;;;12.47;2.80;;;;;;;;;;5054154;28;20505;-46
2023/01/30 14:32:00;;;;;;;14.23;2.80;;;;;;;;;;5053879;28;20397;-46
2023/01/30 14:34:38;;;;;;;4.50;2.60;;;;;;;;;;5053523;28;20409;-43
2023/01/30 14:37:24;;;;;;;5.70;2.70;;;;;;;;;;5053098;28;20429;-42
2023/01/30 14:39:52;;;;;;;12.67;3.47;;;;;;;;;;5053477;28;20700;-41
2023/01/30 14:42:19;;;;;;;9.00;2.87;;;;;;;;;;5053295;28;20399;-42